Moran, Wyoming
Current Conditions -  °F | °C
As of 6:55 AM on Saturday 22 Nov 2014 (Local Time) from KJAC Reporting Station
Overcast Overcast  
Wind Chill: 21°   Ceiling: 400
Heat Index: 30°   Visibility: 0.5mi
Dew Point: 30°   Wind: 10mph
Humidity: 100%   Direction: 190°S
Pressure: 29.76"   Gusts: NA
Location:  43.84°N, 110.51°W
Report Text: KJAC 221355Z AUTO 19009KT 1/2SM OVC004 M01/M01 A2976 RMK AO1
Loading
Personal Weather Stations






























Interactive Weather Map New forecast layout! Learn more

10-Day Weather Forecast

Advertisements
Track Severe Weather on mobile